sensor_id;sensor_type;location;lat;lon;timestamp;P1;durP1;ratioP1;P2;durP2;ratioP2
20417;SDS011;10368;51.436;6.774;2023-02-10T00:01:45;53.90;;;30.23;;
20417;SDS011;10368;51.436;6.774;2023-02-10T00:04:12;59.23;;;29.97;;
20417;SDS011;10368;51.436;6.774;2023-02-10T00:06:39;63.40;;;31.60;;
20417;SDS011;10368;51.436;6.774;2023-02-10T00:09:10;54.50;;;29.93;;
20417;SDS011;10368;51.436;6.774;2023-02-10T00:11:39;58.37;;;30.80;;
20417;SDS011;10368;51.436;6.774;2023-02-10T00:14:26;59.63;;;30.87;;
20417;SDS011;10368;51.436;6.774;2023-02-10T00:16:54;67.77;;;36.10;;
20417;SDS011;10368;51.436;6.774;2023-02-10T00:19:23;52.63;;;29.73;;
20417;SDS011;10368;51.436;6.774;2023-02-10T00:21:51;56.13;;;29.67;;
20417;SDS011;10368;51.436;6.774;2023-02-10T00:24:19;54.20;;;30.67;;
20417;SDS011;10368;51.436;6.774;2023-02-10T00:26:47;49.83;;;28.70;;
20417;SDS011;10368;51.436;6.774;2023-02-10T00:29:14;56.43;;;29.23;;
20417;SDS011;10368;51.436;6.774;2023-02-10T00:31:42;61.00;;;30.67;;
20417;SDS011;10368;51.436;6.774;2023-02-10T00:34:14;56.27;;;30.90;;
20417;SDS011;10368;51.436;6.774;2023-02-10T00:36:42;50.00;;;28.73;;
20417;SDS011;10368;51.436;6.774;2023-02-10T00:39:13;57.63;;;30.93;;
20417;SDS011;10368;51.436;6.774;2023-02-10T00:41:41;58.23;;;31.73;;
20417;SDS011;10368;51.436;6.774;2023-02-10T00:44:08;56.67;;;30.23;;
20417;SDS011;10368;51.436;6.774;2023-02-10T00:46:35;57.10;;;31.13;;
20417;SDS011;10368;51.436;6.774;2023-02-10T00:49:02;52.50;;;30.63;;
20417;SDS011;10368;51.436;6.774;2023-02-10T00:51:29;57.43;;;29.77;;
20417;SDS011;10368;51.436;6.774;2023-02-10T00:53:56;60.67;;;31.90;;
20417;SDS011;10368;51.436;6.774;2023-02-10T00:56:23;63.83;;;31.73;;
20417;SDS011;10368;51.436;6.774;2023-02-10T00:58:50;57.27;;;30.53;;
20417;SDS011;10368;51.436;6.774;2023-02-10T01:01:17;52.80;;;31.37;;
20417;SDS011;10368;51.436;6.774;2023-02-10T01:03:43;59.50;;;29.77;;
20417;SDS011;10368;51.436;6.774;2023-02-10T01:06:11;63.17;;;30.10;;
20417;SDS011;10368;51.436;6.774;2023-02-10T01:08:39;59.77;;;30.90;;
20417;SDS011;10368;51.436;6.774;2023-02-10T01:11:08;60.70;;;31.63;;
20417;SDS011;10368;51.436;6.774;2023-02-10T01:13:37;69.17;;;36.07;;
20417;SDS011;10368;51.436;6.774;2023-02-10T01:16:05;69.80;;;32.63;;
20417;SDS011;10368;51.436;6.774;2023-02-10T01:18:36;63.43;;;33.43;;
20417;SDS011;10368;51.436;6.774;2023-02-10T01:21:11;75.33;;;36.43;;
20417;SDS011;10368;51.436;6.774;2023-02-10T01:23:44;72.70;;;36.60;;
20417;SDS011;10368;51.436;6.774;2023-02-10T01:26:11;77.87;;;36.80;;
20417;SDS011;10368;51.436;6.774;2023-02-10T01:28:39;82.23;;;36.80;;
20417;SDS011;10368;51.436;6.774;2023-02-10T01:31:11;71.40;;;37.07;;
20417;SDS011;10368;51.436;6.774;2023-02-10T01:33:39;74.13;;;37.33;;
20417;SDS011;10368;51.436;6.774;2023-02-10T01:36:09;79.87;;;37.57;;
20417;SDS011;10368;51.436;6.774;2023-02-10T01:38:38;67.03;;;33.73;;
20417;SDS011;10368;51.436;6.774;2023-02-10T01:41:06;68.87;;;35.90;;
20417;SDS011;10368;51.436;6.774;2023-02-10T01:43:52;71.40;;;33.17;;
20417;SDS011;10368;51.436;6.774;2023-02-10T01:46:21;78.43;;;35.27;;
20417;SDS011;10368;51.436;6.774;2023-02-10T01:48:48;65.97;;;32.90;;
20417;SDS011;10368;51.436;6.774;2023-02-10T01:51:15;65.07;;;33.40;;
20417;SDS011;10368;51.436;6.774;2023-02-10T01:53:45;64.67;;;33.23;;
20417;SDS011;10368;51.436;6.774;2023-02-10T01:56:12;69.57;;;33.77;;
20417;SDS011;10368;51.436;6.774;2023-02-10T01:58:42;69.33;;;33.97;;
20417;SDS011;10368;51.436;6.774;2023-02-10T02:01:10;69.63;;;35.50;;
20417;SDS011;10368;51.436;6.774;2023-02-10T02:03:37;78.07;;;37.57;;
20417;SDS011;10368;51.436;6.774;2023-02-10T02:06:08;77.87;;;36.50;;
20417;SDS011;10368;51.436;6.774;2023-02-10T02:08:34;68.93;;;32.97;;
20417;SDS011;10368;51.436;6.774;2023-02-10T02:11:10;70.03;;;34.47;;
20417;SDS011;10368;51.436;6.774;2023-02-10T02:24:52;67.77;;;33.67;;
20417;SDS011;10368;51.436;6.774;2023-02-10T02:34:02;69.47;;;33.73;;
20417;SDS011;10368;51.436;6.774;2023-02-10T02:36:37;69.87;;;34.37;;
20417;SDS011;10368;51.436;6.774;2023-02-10T02:39:11;69.97;;;34.67;;
20417;SDS011;10368;51.436;6.774;2023-02-10T02:41:37;64.50;;;33.90;;
20417;SDS011;10368;51.436;6.774;2023-02-10T02:44:04;63.53;;;34.63;;
20417;SDS011;10368;51.436;6.774;2023-02-10T02:52:03;61.43;;;33.47;;
20417;SDS011;10368;51.436;6.774;2023-02-10T02:54:39;60.43;;;31.80;;
20417;SDS011;10368;51.436;6.774;2023-02-10T02:57:31;62.00;;;31.30;;
20417;SDS011;10368;51.436;6.774;2023-02-10T03:00:43;59.97;;;33.20;;
20417;SDS011;10368;51.436;6.774;2023-02-10T03:02:55;65.57;;;33.27;;
20417;SDS011;10368;51.436;6.774;2023-02-10T03:05:29;70.37;;;34.20;;
20417;SDS011;10368;51.436;6.774;2023-02-10T03:07:58;65.37;;;33.83;;
20417;SDS011;10368;51.436;6.774;2023-02-10T03:10:25;60.37;;;32.80;;
20417;SDS011;10368;51.436;6.774;2023-02-10T03:12:52;61.13;;;34.60;;
20417;SDS011;10368;51.436;6.774;2023-02-10T03:15:19;59.67;;;32.50;;
20417;SDS011;10368;51.436;6.774;2023-02-10T03:17:46;62.30;;;32.50;;
20417;SDS011;10368;51.436;6.774;2023-02-10T03:20:14;63.07;;;32.57;;
20417;SDS011;10368;51.436;6.774;2023-02-10T03:22:41;69.60;;;34.30;;
20417;SDS011;10368;51.436;6.774;2023-02-10T03:25:09;63.10;;;32.40;;
20417;SDS011;10368;51.436;6.774;2023-02-10T03:27:36;60.67;;;31.30;;
20417;SDS011;10368;51.436;6.774;2023-02-10T03:30:03;61.70;;;32.47;;
20417;SDS011;10368;51.436;6.774;2023-02-10T03:32:30;55.03;;;30.93;;
20417;SDS011;10368;51.436;6.774;2023-02-10T03:34:57;58.43;;;31.13;;
20417;SDS011;10368;51.436;6.774;2023-02-10T03:37:24;60.80;;;31.33;;
20417;SDS011;10368;51.436;6.774;2023-02-10T03:39:51;64.80;;;32.73;;
20417;SDS011;10368;51.436;6.774;2023-02-10T03:42:18;56.13;;;31.10;;
20417;SDS011;10368;51.436;6.774;2023-02-10T03:44:45;61.77;;;31.40;;
20417;SDS011;10368;51.436;6.774;2023-02-10T03:47:11;65.10;;;32.53;;
20417;SDS011;10368;51.436;6.774;2023-02-10T03:49:38;58.00;;;32.77;;
20417;SDS011;10368;51.436;6.774;2023-02-10T03:52:05;60.93;;;32.27;;
20417;SDS011;10368;51.436;6.774;2023-02-10T03:54:32;59.17;;;31.17;;
20417;SDS011;10368;51.436;6.774;2023-02-10T03:57:00;56.90;;;31.00;;
20417;SDS011;10368;51.436;6.774;2023-02-10T03:59:27;56.27;;;31.57;;
20417;SDS011;10368;51.436;6.774;2023-02-10T04:01:54;55.00;;;31.27;;
20417;SDS011;10368;51.436;6.774;2023-02-10T04:04:20;60.10;;;31.23;;
20417;SDS011;10368;51.436;6.774;2023-02-10T04:06:47;62.47;;;32.17;;
20417;SDS011;10368;51.436;6.774;2023-02-10T04:09:14;54.97;;;30.93;;
20417;SDS011;10368;51.436;6.774;2023-02-10T04:11:41;57.47;;;32.97;;
20417;SDS011;10368;51.436;6.774;2023-02-10T04:14:08;61.83;;;32.83;;
20417;SDS011;10368;51.436;6.774;2023-02-10T04:16:35;54.10;;;31.60;;
20417;SDS011;10368;51.436;6.774;2023-02-10T04:19:05;60.00;;;33.20;;
20417;SDS011;10368;51.436;6.774;2023-02-10T04:21:31;62.33;;;31.37;;
20417;SDS011;10368;51.436;6.774;2023-02-10T04:23:58;56.97;;;30.77;;
20417;SDS011;10368;51.436;6.774;2023-02-10T04:26:25;69.80;;;32.30;;
20417;SDS011;10368;51.436;6.774;2023-02-10T04:28:52;59.73;;;31.33;;
20417;SDS011;10368;51.436;6.774;2023-02-10T04:31:19;51.50;;;31.07;;
20417;SDS011;10368;51.436;6.774;2023-02-10T04:33:46;56.93;;;30.40;;
20417;SDS011;10368;51.436;6.774;2023-02-10T04:36:13;57.33;;;31.90;;
20417;SDS011;10368;51.436;6.774;2023-02-10T04:38:40;59.63;;;31.67;;
20417;SDS011;10368;51.436;6.774;2023-02-10T04:41:07;57.90;;;30.47;;
20417;SDS011;10368;51.436;6.774;2023-02-10T04:43:34;59.60;;;30.93;;
20417;SDS011;10368;51.436;6.774;2023-02-10T04:46:01;60.27;;;31.30;;
20417;SDS011;10368;51.436;6.774;2023-02-10T04:48:30;54.10;;;30.13;;
20417;SDS011;10368;51.436;6.774;2023-02-10T04:50:57;57.50;;;30.90;;
20417;SDS011;10368;51.436;6.774;2023-02-10T04:53:24;59.50;;;32.43;;
20417;SDS011;10368;51.436;6.774;2023-02-10T04:55:50;60.43;;;31.13;;
20417;SDS011;10368;51.436;6.774;2023-02-10T04:58:17;55.97;;;31.50;;
20417;SDS011;10368;51.436;6.774;2023-02-10T05:00:44;59.00;;;31.60;;
20417;SDS011;10368;51.436;6.774;2023-02-10T05:03:11;59.83;;;33.20;;
20417;SDS011;10368;51.436;6.774;2023-02-10T05:05:38;60.30;;;32.07;;
20417;SDS011;10368;51.436;6.774;2023-02-10T05:08:05;65.27;;;32.20;;
20417;SDS011;10368;51.436;6.774;2023-02-10T05:10:32;61.60;;;31.67;;
20417;SDS011;10368;51.436;6.774;2023-02-10T05:12:59;63.70;;;32.97;;
20417;SDS011;10368;51.436;6.774;2023-02-10T05:15:26;58.53;;;31.03;;
20417;SDS011;10368;51.436;6.774;2023-02-10T05:17:53;67.00;;;31.37;;
20417;SDS011;10368;51.436;6.774;2023-02-10T05:20:20;67.07;;;33.67;;
20417;SDS011;10368;51.436;6.774;2023-02-10T05:22:47;61.77;;;33.47;;
20417;SDS011;10368;51.436;6.774;2023-02-10T05:25:14;66.10;;;33.47;;
20417;SDS011;10368;51.436;6.774;2023-02-10T05:27:40;68.13;;;34.40;;
20417;SDS011;10368;51.436;6.774;2023-02-10T05:30:07;65.83;;;33.40;;
20417;SDS011;10368;51.436;6.774;2023-02-10T05:32:36;61.57;;;32.70;;
20417;SDS011;10368;51.436;6.774;2023-02-10T05:35:03;65.00;;;32.83;;
20417;SDS011;10368;51.436;6.774;2023-02-10T05:37:30;65.77;;;33.60;;
20417;SDS011;10368;51.436;6.774;2023-02-10T05:39:57;60.73;;;30.63;;
20417;SDS011;10368;51.436;6.774;2023-02-10T05:42:25;67.07;;;33.77;;
20417;SDS011;10368;51.436;6.774;2023-02-10T05:44:52;62.50;;;33.53;;
20417;SDS011;10368;51.436;6.774;2023-02-10T05:47:19;63.80;;;32.13;;
20417;SDS011;10368;51.436;6.774;2023-02-10T05:49:46;76.83;;;34.67;;
20417;SDS011;10368;51.436;6.774;2023-02-10T05:52:14;65.90;;;34.47;;
20417;SDS011;10368;51.436;6.774;2023-02-10T05:54:41;71.93;;;33.57;;
20417;SDS011;10368;51.436;6.774;2023-02-10T05:57:08;66.97;;;32.87;;
20417;SDS011;10368;51.436;6.774;2023-02-10T05:59:35;63.67;;;32.23;;
20417;SDS011;10368;51.436;6.774;2023-02-10T06:02:02;65.90;;;32.97;;
20417;SDS011;10368;51.436;6.774;2023-02-10T06:04:29;63.50;;;31.60;;
20417;SDS011;10368;51.436;6.774;2023-02-10T06:06:56;60.23;;;32.57;;
20417;SDS011;10368;51.436;6.774;2023-02-10T06:09:22;62.63;;;31.73;;
20417;SDS011;10368;51.436;6.774;2023-02-10T06:11:50;68.60;;;32.73;;
20417;SDS011;10368;51.436;6.774;2023-02-10T06:14:18;67.37;;;32.50;;
20417;SDS011;10368;51.436;6.774;2023-02-10T06:16:45;74.70;;;35.53;;
20417;SDS011;10368;51.436;6.774;2023-02-10T06:19:12;70.77;;;33.80;;
20417;SDS011;10368;51.436;6.774;2023-02-10T06:21:39;63.07;;;32.30;;
20417;SDS011;10368;51.436;6.774;2023-02-10T06:24:06;73.60;;;34.30;;
20417;SDS011;10368;51.436;6.774;2023-02-10T06:26:33;64.30;;;32.03;;
20417;SDS011;10368;51.436;6.774;2023-02-10T06:29:00;72.60;;;34.57;;
20417;SDS011;10368;51.436;6.774;2023-02-10T06:31:26;71.10;;;33.77;;
20417;SDS011;10368;51.436;6.774;2023-02-10T06:33:53;60.20;;;31.67;;
20417;SDS011;10368;51.436;6.774;2023-02-10T06:36:20;67.40;;;32.10;;
20417;SDS011;10368;51.436;6.774;2023-02-10T06:38:47;71.60;;;34.40;;
20417;SDS011;10368;51.436;6.774;2023-02-10T06:41:15;69.53;;;34.37;;
20417;SDS011;10368;51.436;6.774;2023-02-10T06:43:42;67.03;;;34.33;;
20417;SDS011;10368;51.436;6.774;2023-02-10T06:46:09;70.57;;;33.40;;
20417;SDS011;10368;51.436;6.774;2023-02-10T06:48:37;68.10;;;33.10;;
20417;SDS011;10368;51.436;6.774;2023-02-10T06:51:03;70.27;;;35.37;;
20417;SDS011;10368;51.436;6.774;2023-02-10T06:53:30;67.33;;;32.80;;
20417;SDS011;10368;51.436;6.774;2023-02-10T06:55:57;70.87;;;34.17;;
20417;SDS011;10368;51.436;6.774;2023-02-10T06:58:24;71.73;;;35.37;;
20417;SDS011;10368;51.436;6.774;2023-02-10T07:00:51;68.47;;;34.10;;
20417;SDS011;10368;51.436;6.774;2023-02-10T07:03:18;84.23;;;36.97;;
20417;SDS011;10368;51.436;6.774;2023-02-10T07:05:45;78.13;;;35.07;;
20417;SDS011;10368;51.436;6.774;2023-02-10T07:08:13;73.47;;;36.20;;
20417;SDS011;10368;51.436;6.774;2023-02-10T07:10:40;71.17;;;34.23;;
20417;SDS011;10368;51.436;6.774;2023-02-10T07:13:06;77.43;;;35.50;;
20417;SDS011;10368;51.436;6.774;2023-02-10T07:15:34;74.67;;;34.53;;
20417;SDS011;10368;51.436;6.774;2023-02-10T07:18:01;71.13;;;33.80;;
20417;SDS011;10368;51.436;6.774;2023-02-10T07:20:28;70.80;;;33.90;;
20417;SDS011;10368;51.436;6.774;2023-02-10T07:22:55;67.50;;;31.87;;
20417;SDS011;10368;51.436;6.774;2023-02-10T07:25:22;68.17;;;33.77;;
20417;SDS011;10368;51.436;6.774;2023-02-10T07:27:49;68.60;;;34.50;;
20417;SDS011;10368;51.436;6.774;2023-02-10T07:30:16;63.97;;;32.87;;
20417;SDS011;10368;51.436;6.774;2023-02-10T07:32:44;69.60;;;33.57;;
20417;SDS011;10368;51.436;6.774;2023-02-10T07:35:11;70.77;;;32.97;;
20417;SDS011;10368;51.436;6.774;2023-02-10T07:37:38;67.17;;;33.40;;
20417;SDS011;10368;51.436;6.774;2023-02-10T07:40:06;61.07;;;31.30;;
20417;SDS011;10368;51.436;6.774;2023-02-10T07:42:33;74.10;;;35.30;;
20417;SDS011;10368;51.436;6.774;2023-02-10T07:45:01;78.03;;;37.93;;
20417;SDS011;10368;51.436;6.774;2023-02-10T07:47:28;68.53;;;34.10;;
20417;SDS011;10368;51.436;6.774;2023-02-10T07:49:56;62.50;;;32.50;;
20417;SDS011;10368;51.436;6.774;2023-02-10T07:52:24;61.07;;;31.17;;
20417;SDS011;10368;51.436;6.774;2023-02-10T07:54:52;72.53;;;33.50;;
20417;SDS011;10368;51.436;6.774;2023-02-10T07:57:19;68.13;;;33.37;;
20417;SDS011;10368;51.436;6.774;2023-02-10T07:59:46;72.63;;;34.07;;
20417;SDS011;10368;51.436;6.774;2023-02-10T08:02:13;71.53;;;35.77;;
20417;SDS011;10368;51.436;6.774;2023-02-10T08:04:41;74.63;;;34.33;;
20417;SDS011;10368;51.436;6.774;2023-02-10T08:07:08;68.00;;;32.73;;
20417;SDS011;10368;51.436;6.774;2023-02-10T08:09:37;77.30;;;34.90;;
20417;SDS011;10368;51.436;6.774;2023-02-10T08:12:04;61.97;;;33.50;;
20417;SDS011;10368;51.436;6.774;2023-02-10T08:14:31;66.40;;;34.20;;
20417;SDS011;10368;51.436;6.774;2023-02-10T08:16:59;69.00;;;33.43;;
20417;SDS011;10368;51.436;6.774;2023-02-10T08:19:26;66.37;;;34.57;;
20417;SDS011;10368;51.436;6.774;2023-02-10T08:21:53;73.63;;;35.67;;
20417;SDS011;10368;51.436;6.774;2023-02-10T08:24:20;65.43;;;33.23;;
20417;SDS011;10368;51.436;6.774;2023-02-10T08:26:47;69.83;;;33.17;;
20417;SDS011;10368;51.436;6.774;2023-02-10T08:29:15;71.13;;;33.97;;
20417;SDS011;10368;51.436;6.774;2023-02-10T08:31:42;65.53;;;34.20;;
20417;SDS011;10368;51.436;6.774;2023-02-10T08:34:13;69.23;;;35.30;;
20417;SDS011;10368;51.436;6.774;2023-02-10T08:36:41;64.20;;;32.73;;
20417;SDS011;10368;51.436;6.774;2023-02-10T08:39:08;65.07;;;32.67;;
20417;SDS011;10368;51.436;6.774;2023-02-10T08:41:36;63.07;;;33.77;;
20417;SDS011;10368;51.436;6.774;2023-02-10T08:44:05;67.27;;;34.10;;
20417;SDS011;10368;51.436;6.774;2023-02-10T08:46:33;67.03;;;34.13;;
20417;SDS011;10368;51.436;6.774;2023-02-10T08:49:01;65.70;;;34.57;;
20417;SDS011;10368;51.436;6.774;2023-02-10T08:51:28;65.43;;;33.83;;
20417;SDS011;10368;51.436;6.774;2023-02-10T08:53:56;69.63;;;34.20;;
20417;SDS011;10368;51.436;6.774;2023-02-10T08:56:24;69.43;;;33.07;;
20417;SDS011;10368;51.436;6.774;2023-02-10T08:58:51;73.70;;;35.07;;
20417;SDS011;10368;51.436;6.774;2023-02-10T09:01:19;75.50;;;38.27;;
20417;SDS011;10368;51.436;6.774;2023-02-10T09:03:50;70.67;;;37.73;;
20417;SDS011;10368;51.436;6.774;2023-02-10T09:06:19;66.67;;;33.67;;
20417;SDS011;10368;51.436;6.774;2023-02-10T09:08:46;66.43;;;34.33;;
20417;SDS011;10368;51.436;6.774;2023-02-10T09:11:14;69.37;;;35.27;;
20417;SDS011;10368;51.436;6.774;2023-02-10T09:13:42;69.57;;;35.03;;
20417;SDS011;10368;51.436;6.774;2023-02-10T09:16:09;68.10;;;35.07;;
20417;SDS011;10368;51.436;6.774;2023-02-10T09:18:36;65.40;;;34.60;;
20417;SDS011;10368;51.436;6.774;2023-02-10T09:21:03;72.77;;;35.50;;
20417;SDS011;10368;51.436;6.774;2023-02-10T09:23:30;67.23;;;34.67;;
20417;SDS011;10368;51.436;6.774;2023-02-10T09:25:57;59.17;;;32.83;;
20417;SDS011;10368;51.436;6.774;2023-02-10T09:28:26;68.33;;;34.97;;
20417;SDS011;10368;51.436;6.774;2023-02-10T09:30:53;71.50;;;33.87;;
20417;SDS011;10368;51.436;6.774;2023-02-10T09:33:21;70.13;;;36.40;;
20417;SDS011;10368;51.436;6.774;2023-02-10T09:35:48;70.53;;;34.80;;
20417;SDS011;10368;51.436;6.774;2023-02-10T09:38:15;62.80;;;34.63;;
20417;SDS011;10368;51.436;6.774;2023-02-10T09:40:56;74.13;;;36.10;;
20417;SDS011;10368;51.436;6.774;2023-02-10T09:54:24;69.77;;;34.00;;
20417;SDS011;10368;51.436;6.774;2023-02-10T09:56:55;69.00;;;33.90;;
20417;SDS011;10368;51.436;6.774;2023-02-10T09:59:22;69.43;;;34.03;;
20417;SDS011;10368;51.436;6.774;2023-02-10T10:01:53;67.87;;;33.13;;
20417;SDS011;10368;51.436;6.774;2023-02-10T10:04:24;74.87;;;36.30;;
20417;SDS011;10368;51.436;6.774;2023-02-10T10:09:46;67.00;;;34.10;;
20417;SDS011;10368;51.436;6.774;2023-02-10T10:12:25;65.77;;;33.50;;
20417;SDS011;10368;51.436;6.774;2023-02-10T10:14:52;66.30;;;33.03;;
20417;SDS011;10368;51.436;6.774;2023-02-10T10:28:02;64.87;;;34.83;;
20417;SDS011;10368;51.436;6.774;2023-02-10T10:33:32;66.10;;;33.57;;
20417;SDS011;10368;51.436;6.774;2023-02-10T10:36:11;63.63;;;33.27;;
20417;SDS011;10368;51.436;6.774;2023-02-10T10:38:43;59.67;;;32.07;;
20417;SDS011;10368;51.436;6.774;2023-02-10T10:41:14;65.63;;;30.50;;
20417;SDS011;10368;51.436;6.774;2023-02-10T10:43:46;65.80;;;32.53;;
20417;SDS011;10368;51.436;6.774;2023-02-10T10:46:18;64.23;;;29.33;;
20417;SDS011;10368;51.436;6.774;2023-02-10T10:48:48;52.90;;;29.67;;
20417;SDS011;10368;51.436;6.774;2023-02-10T10:51:15;64.43;;;30.43;;
20417;SDS011;10368;51.436;6.774;2023-02-10T10:53:47;67.53;;;31.33;;
20417;SDS011;10368;51.436;6.774;2023-02-10T10:56:40;56.60;;;29.70;;
20417;SDS011;10368;51.436;6.774;2023-02-10T10:59:15;61.87;;;30.33;;
20417;SDS011;10368;51.436;6.774;2023-02-10T11:01:46;59.50;;;31.43;;
20417;SDS011;10368;51.436;6.774;2023-02-10T11:04:16;52.67;;;27.43;;
20417;SDS011;10368;51.436;6.774;2023-02-10T11:06:48;53.13;;;29.43;;
20417;SDS011;10368;51.436;6.774;2023-02-10T11:09:40;59.10;;;29.23;;
20417;SDS011;10368;51.436;6.774;2023-02-10T11:12:21;56.53;;;29.33;;
20417;SDS011;10368;51.436;6.774;2023-02-10T11:14:48;51.10;;;28.07;;
20417;SDS011;10368;51.436;6.774;2023-02-10T11:17:24;59.10;;;30.93;;
20417;SDS011;10368;51.436;6.774;2023-02-10T11:19:56;51.80;;;28.53;;
20417;SDS011;10368;51.436;6.774;2023-02-10T11:22:24;49.53;;;29.47;;
20417;SDS011;10368;51.436;6.774;2023-02-10T11:24:55;54.67;;;28.13;;
20417;SDS011;10368;51.436;6.774;2023-02-10T11:27:23;51.10;;;30.30;;
20417;SDS011;10368;51.436;6.774;2023-02-10T11:32:28;48.23;;;30.07;;
20417;SDS011;10368;51.436;6.774;2023-02-10T11:34:59;46.93;;;30.90;;
20417;SDS011;10368;51.436;6.774;2023-02-10T11:37:30;46.70;;;28.00;;
20417;SDS011;10368;51.436;6.774;2023-02-10T11:40:00;43.40;;;26.75;;
20417;SDS011;10368;51.436;6.774;2023-02-10T11:42:34;43.63;;;27.25;;
20417;SDS011;10368;51.436;6.774;2023-02-10T11:47:35;37.50;;;21.88;;
20417;SDS011;10368;51.436;6.774;2023-02-10T11:50:15;33.67;;;19.70;;
20417;SDS011;10368;51.436;6.774;2023-02-10T11:52:55;26.33;;;17.50;;
20417;SDS011;10368;51.436;6.774;2023-02-10T11:55:25;37.10;;;23.23;;
20417;SDS011;10368;51.436;6.774;2023-02-10T11:58:44;30.25;;;21.48;;
20417;SDS011;10368;51.436;6.774;2023-02-10T12:01:44;39.60;;;20.83;;
20417;SDS011;10368;51.436;6.774;2023-02-10T12:23:52;16.33;;;11.03;;
20417;SDS011;10368;51.436;6.774;2023-02-10T12:26:52;30.97;;;15.37;;
20417;SDS011;10368;51.436;6.774;2023-02-10T12:31:58;23.47;;;13.73;;
20417;SDS011;10368;51.436;6.774;2023-02-10T12:42:58;25.20;;;14.17;;
20417;SDS011;10368;51.436;6.774;2023-02-10T12:54:44;16.57;;;11.23;;
20417;SDS011;10368;51.436;6.774;2023-02-10T12:57:09;21.83;;;12.70;;
20417;SDS011;10368;51.436;6.774;2023-02-10T13:02:36;28.73;;;18.57;;
20417;SDS011;10368;51.436;6.774;2023-02-10T13:05:11;20.80;;;15.03;;
20417;SDS011;10368;51.436;6.774;2023-02-10T13:07:56;29.53;;;18.30;;
20417;SDS011;10368;51.436;6.774;2023-02-10T13:13:01;24.73;;;14.88;;
20417;SDS011;10368;51.436;6.774;2023-02-10T13:18:58;24.30;;;15.38;;
20417;SDS011;10368;51.436;6.774;2023-02-10T13:21:28;26.63;;;15.63;;
20417;SDS011;10368;51.436;6.774;2023-02-10T13:24:06;29.58;;;15.80;;
20417;SDS011;10368;51.436;6.774;2023-02-10T13:32:20;30.08;;;18.05;;
20417;SDS011;10368;51.436;6.774;2023-02-10T13:34:53;32.30;;;19.37;;
20417;SDS011;10368;51.436;6.774;2023-02-10T13:40:20;38.83;;;20.27;;
20417;SDS011;10368;51.436;6.774;2023-02-10T13:42:56;36.07;;;21.33;;
20417;SDS011;10368;51.436;6.774;2023-02-10T13:45:31;37.00;;;20.63;;
20417;SDS011;10368;51.436;6.774;2023-02-10T13:48:05;37.13;;;22.90;;
20417;SDS011;10368;51.436;6.774;2023-02-10T13:50:46;30.40;;;19.93;;
20417;SDS011;10368;51.436;6.774;2023-02-10T13:53:29;38.57;;;22.77;;
20417;SDS011;10368;51.436;6.774;2023-02-10T13:56:14;38.67;;;22.23;;
20417;SDS011;10368;51.436;6.774;2023-02-10T13:58:52;46.03;;;21.30;;
20417;SDS011;10368;51.436;6.774;2023-02-10T14:03:59;34.20;;;19.73;;
20417;SDS011;10368;51.436;6.774;2023-02-10T14:06:34;29.20;;;20.43;;
20417;SDS011;10368;51.436;6.774;2023-02-10T14:09:05;27.97;;;18.93;;
20417;SDS011;10368;51.436;6.774;2023-02-10T14:11:44;28.10;;;19.60;;
20417;SDS011;10368;51.436;6.774;2023-02-10T14:14:28;29.10;;;20.00;;
20417;SDS011;10368;51.436;6.774;2023-02-10T14:19:45;32.30;;;19.27;;
20417;SDS011;10368;51.436;6.774;2023-02-10T14:24:50;31.50;;;20.57;;
20417;SDS011;10368;51.436;6.774;2023-02-10T14:27:18;30.63;;;18.97;;
20417;SDS011;10368;51.436;6.774;2023-02-10T14:29:53;31.87;;;19.17;;
20417;SDS011;10368;51.436;6.774;2023-02-10T14:32:22;33.43;;;19.47;;
20417;SDS011;10368;51.436;6.774;2023-02-10T14:34:54;27.00;;;18.83;;
20417;SDS011;10368;51.436;6.774;2023-02-10T14:37:26;33.63;;;20.13;;
20417;SDS011;10368;51.436;6.774;2023-02-10T14:39:57;30.70;;;20.37;;
20417;SDS011;10368;51.436;6.774;2023-02-10T14:42:26;37.87;;;21.13;;
20417;SDS011;10368;51.436;6.774;2023-02-10T14:45:01;31.07;;;19.23;;
20417;SDS011;10368;51.436;6.774;2023-02-10T14:47:38;31.53;;;21.20;;
20417;SDS011;10368;51.436;6.774;2023-02-10T14:52:57;27.17;;;19.63;;
20417;SDS011;10368;51.436;6.774;2023-02-10T14:55:32;39.70;;;21.13;;
20417;SDS011;10368;51.436;6.774;2023-02-10T14:58:05;30.57;;;20.27;;
20417;SDS011;10368;51.436;6.774;2023-02-10T15:00:39;25.67;;;19.70;;
20417;SDS011;10368;51.436;6.774;2023-02-10T15:03:09;35.17;;;20.83;;
20417;SDS011;10368;51.436;6.774;2023-02-10T15:05:43;30.10;;;20.13;;
20417;SDS011;10368;51.436;6.774;2023-02-10T15:08:18;29.97;;;22.23;;
20417;SDS011;10368;51.436;6.774;2023-02-10T15:10:48;37.73;;;21.43;;
20417;SDS011;10368;51.436;6.774;2023-02-10T15:13:19;32.03;;;20.10;;
20417;SDS011;10368;51.436;6.774;2023-02-10T15:15:50;29.90;;;20.20;;
20417;SDS011;10368;51.436;6.774;2023-02-10T15:18:20;31.27;;;19.77;;
20417;SDS011;10368;51.436;6.774;2023-02-10T15:23:23;31.07;;;20.97;;
20417;SDS011;10368;51.436;6.774;2023-02-10T15:26:02;30.47;;;20.57;;
20417;SDS011;10368;51.436;6.774;2023-02-10T15:28:43;36.00;;;21.67;;
20417;SDS011;10368;51.436;6.774;2023-02-10T15:33:49;34.73;;;20.90;;
20417;SDS011;10368;51.436;6.774;2023-02-10T15:36:28;39.07;;;20.53;;
20417;SDS011;10368;51.436;6.774;2023-02-10T15:39:03;31.33;;;19.27;;
20417;SDS011;10368;51.436;6.774;2023-02-10T15:41:40;27.03;;;18.97;;
20417;SDS011;10368;51.436;6.774;2023-02-10T15:46:46;26.57;;;18.40;;
20417;SDS011;10368;51.436;6.774;2023-02-10T15:49:16;23.57;;;16.67;;
20417;SDS011;10368;51.436;6.774;2023-02-10T15:51:48;29.93;;;17.87;;
20417;SDS011;10368;51.436;6.774;2023-02-10T15:54:23;24.67;;;17.57;;
20417;SDS011;10368;51.436;6.774;2023-02-10T15:56:59;26.47;;;18.27;;
20417;SDS011;10368;51.436;6.774;2023-02-10T15:59:28;26.10;;;17.67;;
20417;SDS011;10368;51.436;6.774;2023-02-10T16:02:02;26.87;;;17.83;;
20417;SDS011;10368;51.436;6.774;2023-02-10T16:04:31;27.53;;;17.10;;
20417;SDS011;10368;51.436;6.774;2023-02-10T16:06:58;25.73;;;18.57;;
20417;SDS011;10368;51.436;6.774;2023-02-10T16:09:27;30.27;;;18.20;;
20417;SDS011;10368;51.436;6.774;2023-02-10T16:11:57;23.13;;;17.40;;
20417;SDS011;10368;51.436;6.774;2023-02-10T16:14:27;28.77;;;17.23;;
20417;SDS011;10368;51.436;6.774;2023-02-10T16:16:55;25.97;;;17.77;;
20417;SDS011;10368;51.436;6.774;2023-02-10T16:19:24;31.40;;;17.50;;
20417;SDS011;10368;51.436;6.774;2023-02-10T16:21:53;29.30;;;18.57;;
20417;SDS011;10368;51.436;6.774;2023-02-10T16:24:23;25.33;;;18.10;;
20417;SDS011;10368;51.436;6.774;2023-02-10T16:26:52;32.57;;;18.90;;
20417;SDS011;10368;51.436;6.774;2023-02-10T16:29:21;31.83;;;17.53;;
20417;SDS011;10368;51.436;6.774;2023-02-10T16:31:51;29.50;;;19.30;;
20417;SDS011;10368;51.436;6.774;2023-02-10T16:34:34;26.57;;;17.60;;
20417;SDS011;10368;51.436;6.774;2023-02-10T16:37:01;26.43;;;17.67;;
20417;SDS011;10368;51.436;6.774;2023-02-10T16:39:28;21.23;;;16.37;;
20417;SDS011;10368;51.436;6.774;2023-02-10T16:41:56;28.13;;;17.17;;
20417;SDS011;10368;51.436;6.774;2023-02-10T16:44:23;23.00;;;17.03;;
20417;SDS011;10368;51.436;6.774;2023-02-10T16:46:50;23.63;;;16.47;;
20417;SDS011;10368;51.436;6.774;2023-02-10T16:49:17;25.90;;;16.93;;